sensor_id;sensor_type;location;lat;lon;timestamp;temperature;humidity
21559;DHT22;10940;48.890;8.240;2024-03-02T00:00:04;4.00;99.90
21559;DHT22;10940;48.890;8.240;2024-03-02T00:02:47;4.00;99.90
21559;DHT22;10940;48.890;8.240;2024-03-02T00:05:15;3.90;99.90
21559;DHT22;10940;48.890;8.240;2024-03-02T00:07:42;3.90;99.90
21559;DHT22;10940;48.890;8.240;2024-03-02T00:10:10;3.90;99.90
21559;DHT22;10940;48.890;8.240;2024-03-02T00:12:42;3.90;99.90
21559;DHT22;10940;48.890;8.240;2024-03-02T00:18:07;3.90;99.90
21559;DHT22;10940;48.890;8.240;2024-03-02T00:20:33;3.90;99.90
21559;DHT22;10940;48.890;8.240;2024-03-02T00:23:06;3.90;99.90
21559;DHT22;10940;48.890;8.240;2024-03-02T00:25:47;3.90;99.90
21559;DHT22;10940;48.890;8.240;2024-03-02T00:28:25;4.00;99.90
21559;DHT22;10940;48.890;8.240;2024-03-02T00:30:59;4.00;99.90
21559;DHT22;10940;48.890;8.240;2024-03-02T00:33:28;4.00;99.90
21559;DHT22;10940;48.890;8.240;2024-03-02T00:35:55;4.00;99.90
21559;DHT22;10940;48.890;8.240;2024-03-02T00:38:22;4.10;99.90
21559;DHT22;10940;48.890;8.240;2024-03-02T00:40:48;4.10;99.90
21559;DHT22;10940;48.890;8.240;2024-03-02T00:46:03;4.10;99.90
21559;DHT22;10940;48.890;8.240;2024-03-02T00:48:29;4.20;99.90
21559;DHT22;10940;48.890;8.240;2024-03-02T00:50:57;4.20;99.90
21559;DHT22;10940;48.890;8.240;2024-03-02T00:53:25;4.20;99.90
21559;DHT22;10940;48.890;8.240;2024-03-02T00:55:52;4.30;99.90
21559;DHT22;10940;48.890;8.240;2024-03-02T00:58:18;4.20;99.90
21559;DHT22;10940;48.890;8.240;2024-03-02T01:00:43;4.20;99.90
21559;DHT22;10940;48.890;8.240;2024-03-02T01:03:09;4.20;99.90
21559;DHT22;10940;48.890;8.240;2024-03-02T01:05:36;4.20;99.90
21559;DHT22;10940;48.890;8.240;2024-03-02T01:08:02;4.20;99.90
21559;DHT22;10940;48.890;8.240;2024-03-02T01:10:27;4.20;99.90
21559;DHT22;10940;48.890;8.240;2024-03-02T01:12:53;4.10;99.90
21559;DHT22;10940;48.890;8.240;2024-03-02T01:15:18;4.10;99.90
21559;DHT22;10940;48.890;8.240;2024-03-02T01:17:44;4.00;99.90
21559;DHT22;10940;48.890;8.240;2024-03-02T01:20:10;3.90;99.90
21559;DHT22;10940;48.890;8.240;2024-03-02T01:22:36;3.90;99.90
21559;DHT22;10940;48.890;8.240;2024-03-02T01:25:03;3.70;99.90
21559;DHT22;10940;48.890;8.240;2024-03-02T01:27:28;3.80;99.90
21559;DHT22;10940;48.890;8.240;2024-03-02T01:29:54;3.70;99.90
21559;DHT22;10940;48.890;8.240;2024-03-02T01:32:20;3.70;99.90
21559;DHT22;10940;48.890;8.240;2024-03-02T01:34:45;3.70;99.90
21559;DHT22;10940;48.890;8.240;2024-03-02T01:37:11;3.70;99.90
21559;DHT22;10940;48.890;8.240;2024-03-02T01:39:37;3.70;99.90
21559;DHT22;10940;48.890;8.240;2024-03-02T01:42:02;3.60;99.90
21559;DHT22;10940;48.890;8.240;2024-03-02T01:44:28;3.60;99.90
21559;DHT22;10940;48.890;8.240;2024-03-02T01:46:53;3.60;99.90
21559;DHT22;10940;48.890;8.240;2024-03-02T01:49:19;3.60;99.90
21559;DHT22;10940;48.890;8.240;2024-03-02T01:51:45;3.50;99.90
21559;DHT22;10940;48.890;8.240;2024-03-02T01:54:11;3.50;99.90
21559;DHT22;10940;48.890;8.240;2024-03-02T01:56:37;3.50;99.90
21559;DHT22;10940;48.890;8.240;2024-03-02T01:59:02;3.40;99.90
21559;DHT22;10940;48.890;8.240;2024-03-02T02:01:28;3.40;99.90
21559;DHT22;10940;48.890;8.240;2024-03-02T02:03:54;3.30;99.90
21559;DHT22;10940;48.890;8.240;2024-03-02T02:06:20;3.30;99.90
21559;DHT22;10940;48.890;8.240;2024-03-02T02:08:47;3.30;99.90
21559;DHT22;10940;48.890;8.240;2024-03-02T02:11:15;3.30;99.90
21559;DHT22;10940;48.890;8.240;2024-03-02T02:13:41;3.30;99.90
21559;DHT22;10940;48.890;8.240;2024-03-02T02:16:07;3.30;99.90
21559;DHT22;10940;48.890;8.240;2024-03-02T02:18:33;3.20;99.90
21559;DHT22;10940;48.890;8.240;2024-03-02T02:20:59;3.20;99.90
21559;DHT22;10940;48.890;8.240;2024-03-02T02:23:25;3.30;99.90
21559;DHT22;10940;48.890;8.240;2024-03-02T02:25:50;3.20;99.90
21559;DHT22;10940;48.890;8.240;2024-03-02T02:28:16;3.20;99.90
21559;DHT22;10940;48.890;8.240;2024-03-02T02:30:42;3.30;99.90
21559;DHT22;10940;48.890;8.240;2024-03-02T02:33:08;3.20;99.90
21559;DHT22;10940;48.890;8.240;2024-03-02T02:35:34;3.20;99.90
21559;DHT22;10940;48.890;8.240;2024-03-02T02:38:00;3.20;99.90
21559;DHT22;10940;48.890;8.240;2024-03-02T02:40:26;3.20;99.90
21559;DHT22;10940;48.890;8.240;2024-03-02T02:42:52;3.20;99.90
21559;DHT22;10940;48.890;8.240;2024-03-02T02:45:17;3.20;99.90
21559;DHT22;10940;48.890;8.240;2024-03-02T02:47:44;3.30;99.90
21559;DHT22;10940;48.890;8.240;2024-03-02T02:50:11;3.30;99.90
21559;DHT22;10940;48.890;8.240;2024-03-02T02:52:38;3.30;99.90
21559;DHT22;10940;48.890;8.240;2024-03-02T02:55:07;3.40;99.90
21559;DHT22;10940;48.890;8.240;2024-03-02T02:57:33;3.40;99.90
21559;DHT22;10940;48.890;8.240;2024-03-02T03:00:09;3.40;99.90
21559;DHT22;10940;48.890;8.240;2024-03-02T03:02:42;3.40;99.90
21559;DHT22;10940;48.890;8.240;2024-03-02T03:05:09;3.40;99.90
21559;DHT22;10940;48.890;8.240;2024-03-02T03:07:34;3.40;99.90
21559;DHT22;10940;48.890;8.240;2024-03-02T03:10:02;3.40;99.90
21559;DHT22;10940;48.890;8.240;2024-03-02T03:12:28;3.40;99.90
21559;DHT22;10940;48.890;8.240;2024-03-02T03:14:54;3.40;99.90
21559;DHT22;10940;48.890;8.240;2024-03-02T03:17:21;3.40;99.90
21559;DHT22;10940;48.890;8.240;2024-03-02T03:19:47;3.50;99.90
21559;DHT22;10940;48.890;8.240;2024-03-02T03:22:13;3.50;99.90
21559;DHT22;10940;48.890;8.240;2024-03-02T03:24:38;3.50;99.90
21559;DHT22;10940;48.890;8.240;2024-03-02T03:27:05;3.50;99.90
21559;DHT22;10940;48.890;8.240;2024-03-02T03:29:30;3.50;99.90
21559;DHT22;10940;48.890;8.240;2024-03-02T03:31:56;3.50;99.90
21559;DHT22;10940;48.890;8.240;2024-03-02T03:34:21;3.50;99.90
21559;DHT22;10940;48.890;8.240;2024-03-02T03:36:47;3.50;99.90
21559;DHT22;10940;48.890;8.240;2024-03-02T03:39:12;3.40;99.90
21559;DHT22;10940;48.890;8.240;2024-03-02T03:41:38;3.40;99.90
21559;DHT22;10940;48.890;8.240;2024-03-02T03:44:05;3.40;99.90
21559;DHT22;10940;48.890;8.240;2024-03-02T03:46:31;3.20;99.90
21559;DHT22;10940;48.890;8.240;2024-03-02T03:48:56;3.10;99.90
21559;DHT22;10940;48.890;8.240;2024-03-02T03:51:22;3.10;99.90
21559;DHT22;10940;48.890;8.240;2024-03-02T03:53:48;3.10;99.90
21559;DHT22;10940;48.890;8.240;2024-03-02T03:56:14;3.10;99.90
21559;DHT22;10940;48.890;8.240;2024-03-02T03:58:40;3.00;99.90
21559;DHT22;10940;48.890;8.240;2024-03-02T04:01:05;3.00;99.90
21559;DHT22;10940;48.890;8.240;2024-03-02T04:03:31;2.90;99.90
21559;DHT22;10940;48.890;8.240;2024-03-02T04:05:56;2.80;99.90
21559;DHT22;10940;48.890;8.240;2024-03-02T04:08:22;2.80;99.90
21559;DHT22;10940;48.890;8.240;2024-03-02T04:10:47;2.80;99.90
21559;DHT22;10940;48.890;8.240;2024-03-02T04:13:13;2.80;99.90
21559;DHT22;10940;48.890;8.240;2024-03-02T04:15:39;2.80;99.90
21559;DHT22;10940;48.890;8.240;2024-03-02T04:18:06;2.80;99.90
21559;DHT22;10940;48.890;8.240;2024-03-02T04:20:31;2.60;99.90
21559;DHT22;10940;48.890;8.240;2024-03-02T04:22:57;2.50;99.90
21559;DHT22;10940;48.890;8.240;2024-03-02T04:25:23;2.50;99.90
21559;DHT22;10940;48.890;8.240;2024-03-02T04:27:48;2.40;99.90
21559;DHT22;10940;48.890;8.240;2024-03-02T04:30:14;2.40;99.90
21559;DHT22;10940;48.890;8.240;2024-03-02T04:32:40;2.40;99.90
21559;DHT22;10940;48.890;8.240;2024-03-02T04:35:06;2.50;99.90
21559;DHT22;10940;48.890;8.240;2024-03-02T04:37:35;2.50;99.90
21559;DHT22;10940;48.890;8.240;2024-03-02T04:40:01;2.50;99.90
21559;DHT22;10940;48.890;8.240;2024-03-02T04:42:26;2.40;99.90
21559;DHT22;10940;48.890;8.240;2024-03-02T04:44:52;2.30;99.90
21559;DHT22;10940;48.890;8.240;2024-03-02T04:47:17;2.20;99.90
21559;DHT22;10940;48.890;8.240;2024-03-02T04:49:43;2.20;99.90
21559;DHT22;10940;48.890;8.240;2024-03-02T04:52:09;2.10;99.90
21559;DHT22;10940;48.890;8.240;2024-03-02T04:54:34;2.00;99.90
21559;DHT22;10940;48.890;8.240;2024-03-02T04:57:20;2.00;99.90
21559;DHT22;10940;48.890;8.240;2024-03-02T04:59:46;1.90;99.90
21559;DHT22;10940;48.890;8.240;2024-03-02T05:02:11;1.90;99.90
21559;DHT22;10940;48.890;8.240;2024-03-02T05:04:39;1.80;99.90
21559;DHT22;10940;48.890;8.240;2024-03-02T05:07:05;1.80;99.90
21559;DHT22;10940;48.890;8.240;2024-03-02T05:09:31;1.80;99.90
21559;DHT22;10940;48.890;8.240;2024-03-02T05:11:57;1.70;99.90
21559;DHT22;10940;48.890;8.240;2024-03-02T05:14:41;1.70;99.90
21559;DHT22;10940;48.890;8.240;2024-03-02T05:17:06;1.60;99.90
21559;DHT22;10940;48.890;8.240;2024-03-02T05:19:32;1.60;99.90
21559;DHT22;10940;48.890;8.240;2024-03-02T05:21:58;1.60;99.90
21559;DHT22;10940;48.890;8.240;2024-03-02T05:24:23;1.60;99.90
21559;DHT22;10940;48.890;8.240;2024-03-02T05:26:49;1.60;99.90
21559;DHT22;10940;48.890;8.240;2024-03-02T05:29:14;1.60;99.90
21559;DHT22;10940;48.890;8.240;2024-03-02T05:31:40;1.50;99.90
21559;DHT22;10940;48.890;8.240;2024-03-02T05:34:06;1.50;99.90
21559;DHT22;10940;48.890;8.240;2024-03-02T05:36:31;1.50;99.90
21559;DHT22;10940;48.890;8.240;2024-03-02T05:38:57;1.60;99.90
21559;DHT22;10940;48.890;8.240;2024-03-02T05:41:23;1.60;99.90
21559;DHT22;10940;48.890;8.240;2024-03-02T05:43:48;1.60;99.90
21559;DHT22;10940;48.890;8.240;2024-03-02T05:46:15;1.60;99.90
21559;DHT22;10940;48.890;8.240;2024-03-02T05:48:40;1.60;99.90
21559;DHT22;10940;48.890;8.240;2024-03-02T05:51:06;1.50;99.90
21559;DHT22;10940;48.890;8.240;2024-03-02T05:53:31;1.50;99.90
21559;DHT22;10940;48.890;8.240;2024-03-02T05:55:57;1.50;99.90
21559;DHT22;10940;48.890;8.240;2024-03-02T05:58:23;1.60;99.90
21559;DHT22;10940;48.890;8.240;2024-03-02T06:01:07;1.60;99.90
21559;DHT22;10940;48.890;8.240;2024-03-02T06:03:32;1.60;99.90
21559;DHT22;10940;48.890;8.240;2024-03-02T06:05:58;1.50;99.90
21559;DHT22;10940;48.890;8.240;2024-03-02T06:08:24;1.50;99.90
21559;DHT22;10940;48.890;8.240;2024-03-02T06:10:50;1.50;99.90
21559;DHT22;10940;48.890;8.240;2024-03-02T06:13:16;1.50;99.90
21559;DHT22;10940;48.890;8.240;2024-03-02T06:15:41;1.50;99.90
21559;DHT22;10940;48.890;8.240;2024-03-02T06:18:07;1.60;99.90
21559;DHT22;10940;48.890;8.240;2024-03-02T06:20:33;1.60;99.90
21559;DHT22;10940;48.890;8.240;2024-03-02T06:22:59;1.60;99.90
21559;DHT22;10940;48.890;8.240;2024-03-02T06:25:24;1.50;99.90
21559;DHT22;10940;48.890;8.240;2024-03-02T06:27:50;1.60;99.90
21559;DHT22;10940;48.890;8.240;2024-03-02T06:30:16;1.60;99.90
21559;DHT22;10940;48.890;8.240;2024-03-02T06:32:41;1.50;99.90
21559;DHT22;10940;48.890;8.240;2024-03-02T06:35:07;1.50;99.90
21559;DHT22;10940;48.890;8.240;2024-03-02T06:37:38;1.50;99.90
21559;DHT22;10940;48.890;8.240;2024-03-02T06:40:06;1.50;99.90
21559;DHT22;10940;48.890;8.240;2024-03-02T06:42:33;1.50;99.90
21559;DHT22;10940;48.890;8.240;2024-03-02T06:44:59;1.60;99.90
21559;DHT22;10940;48.890;8.240;2024-03-02T06:47:25;1.60;99.90
21559;DHT22;10940;48.890;8.240;2024-03-02T06:49:50;1.60;99.90
21559;DHT22;10940;48.890;8.240;2024-03-02T06:52:16;1.60;99.90
21559;DHT22;10940;48.890;8.240;2024-03-02T06:54:41;1.70;99.90
21559;DHT22;10940;48.890;8.240;2024-03-02T06:57:07;1.70;99.90
21559;DHT22;10940;48.890;8.240;2024-03-02T06:59:33;1.80;99.90
21559;DHT22;10940;48.890;8.240;2024-03-02T07:01:59;1.80;99.90
21559;DHT22;10940;48.890;8.240;2024-03-02T07:04:24;1.80;99.90
21559;DHT22;10940;48.890;8.240;2024-03-02T07:06:50;1.90;99.90
21559;DHT22;10940;48.890;8.240;2024-03-02T07:09:16;1.90;99.90
21559;DHT22;10940;48.890;8.240;2024-03-02T07:11:42;1.90;99.90
21559;DHT22;10940;48.890;8.240;2024-03-02T07:14:08;2.10;99.90
21559;DHT22;10940;48.890;8.240;2024-03-02T07:16:34;2.20;99.90
21559;DHT22;10940;48.890;8.240;2024-03-02T07:19:03;2.30;99.90
21559;DHT22;10940;48.890;8.240;2024-03-02T07:21:29;2.50;99.90
21559;DHT22;10940;48.890;8.240;2024-03-02T07:23:54;2.60;99.90
21559;DHT22;10940;48.890;8.240;2024-03-02T07:26:20;2.80;99.90
21559;DHT22;10940;48.890;8.240;2024-03-02T07:28:46;3.10;99.90
21559;DHT22;10940;48.890;8.240;2024-03-02T07:31:13;3.20;99.90
21559;DHT22;10940;48.890;8.240;2024-03-02T07:33:38;3.50;99.90
21559;DHT22;10940;48.890;8.240;2024-03-02T07:36:04;3.60;99.90
21559;DHT22;10940;48.890;8.240;2024-03-02T07:38:30;3.80;99.90
21559;DHT22;10940;48.890;8.240;2024-03-02T07:40:56;4.00;99.90
21559;DHT22;10940;48.890;8.240;2024-03-02T07:43:22;4.20;99.90
21559;DHT22;10940;48.890;8.240;2024-03-02T07:45:48;4.40;99.90
21559;DHT22;10940;48.890;8.240;2024-03-02T07:48:14;4.60;99.90
21559;DHT22;10940;48.890;8.240;2024-03-02T07:50:40;4.80;99.90
21559;DHT22;10940;48.890;8.240;2024-03-02T07:53:06;5.00;99.90
21559;DHT22;10940;48.890;8.240;2024-03-02T07:55:33;5.10;99.90
21559;DHT22;10940;48.890;8.240;2024-03-02T07:57:59;5.20;99.90
21559;DHT22;10940;48.890;8.240;2024-03-02T08:00:25;5.40;99.90
21559;DHT22;10940;48.890;8.240;2024-03-02T08:02:51;5.60;99.90
21559;DHT22;10940;48.890;8.240;2024-03-02T08:05:18;5.70;99.90
21559;DHT22;10940;48.890;8.240;2024-03-02T08:07:46;5.80;99.90
21559;DHT22;10940;48.890;8.240;2024-03-02T08:10:13;6.00;99.90
21559;DHT22;10940;48.890;8.240;2024-03-02T08:12:39;6.10;99.90
21559;DHT22;10940;48.890;8.240;2024-03-02T08:15:05;6.30;99.90
21559;DHT22;10940;48.890;8.240;2024-03-02T08:17:31;6.50;99.90
21559;DHT22;10940;48.890;8.240;2024-03-02T08:19:56;6.60;99.90
21559;DHT22;10940;48.890;8.240;2024-03-02T08:22:23;6.70;99.90
21559;DHT22;10940;48.890;8.240;2024-03-02T08:24:51;6.80;99.90
21559;DHT22;10940;48.890;8.240;2024-03-02T08:27:17;6.90;99.90
21559;DHT22;10940;48.890;8.240;2024-03-02T08:29:42;7.00;99.90
21559;DHT22;10940;48.890;8.240;2024-03-02T08:32:08;7.10;99.90
21559;DHT22;10940;48.890;8.240;2024-03-02T08:34:34;7.20;99.90
21559;DHT22;10940;48.890;8.240;2024-03-02T08:37:04;7.30;99.90
21559;DHT22;10940;48.890;8.240;2024-03-02T08:39:29;7.40;99.90
21559;DHT22;10940;48.890;8.240;2024-03-02T08:41:55;7.50;99.90
21559;DHT22;10940;48.890;8.240;2024-03-02T08:44:21;7.60;99.90
21559;DHT22;10940;48.890;8.240;2024-03-02T08:46:47;7.70;99.90
21559;DHT22;10940;48.890;8.240;2024-03-02T08:49:13;7.70;99.90
21559;DHT22;10940;48.890;8.240;2024-03-02T08:51:38;7.80;99.90
21559;DHT22;10940;48.890;8.240;2024-03-02T08:54:04;7.90;99.90
21559;DHT22;10940;48.890;8.240;2024-03-02T08:56:31;8.10;99.90
21559;DHT22;10940;48.890;8.240;2024-03-02T08:58:56;8.10;99.90
21559;DHT22;10940;48.890;8.240;2024-03-02T09:01:22;8.20;99.90
21559;DHT22;10940;48.890;8.240;2024-03-02T09:03:48;8.40;99.90
21559;DHT22;10940;48.890;8.240;2024-03-02T09:06:14;8.40;99.90
21559;DHT22;10940;48.890;8.240;2024-03-02T09:08:42;8.50;99.90
21559;DHT22;10940;48.890;8.240;2024-03-02T09:11:09;8.60;99.90
21559;DHT22;10940;48.890;8.240;2024-03-02T09:13:36;8.70;99.90
21559;DHT22;10940;48.890;8.240;2024-03-02T09:16:02;8.80;99.90
21559;DHT22;10940;48.890;8.240;2024-03-02T09:18:28;8.80;99.90
21559;DHT22;10940;48.890;8.240;2024-03-02T09:20:53;8.90;99.90
21559;DHT22;10940;48.890;8.240;2024-03-02T09:23:19;8.90;99.90
21559;DHT22;10940;48.890;8.240;2024-03-02T09:25:44;9.00;99.90
21559;DHT22;10940;48.890;8.240;2024-03-02T09:28:10;9.10;99.90
21559;DHT22;10940;48.890;8.240;2024-03-02T09:30:36;9.20;99.90
21559;DHT22;10940;48.890;8.240;2024-03-02T09:33:01;9.30;99.90
21559;DHT22;10940;48.890;8.240;2024-03-02T09:35:27;9.40;99.90
21559;DHT22;10940;48.890;8.240;2024-03-02T09:37:53;9.50;99.90
21559;DHT22;10940;48.890;8.240;2024-03-02T09:40:21;9.50;99.90
21559;DHT22;10940;48.890;8.240;2024-03-02T09:42:47;9.70;99.90
21559;DHT22;10940;48.890;8.240;2024-03-02T09:45:21;9.70;99.90
21559;DHT22;10940;48.890;8.240;2024-03-02T09:47:47;9.80;99.90
21559;DHT22;10940;48.890;8.240;2024-03-02T09:50:13;9.90;99.90
21559;DHT22;10940;48.890;8.240;2024-03-02T09:52:40;9.90;99.90
21559;DHT22;10940;48.890;8.240;2024-03-02T09:55:08;10.10;99.90
21559;DHT22;10940;48.890;8.240;2024-03-02T09:57:33;10.20;99.90
21559;DHT22;10940;48.890;8.240;2024-03-02T09:59:59;10.30;99.90
21559;DHT22;10940;48.890;8.240;2024-03-02T10:02:24;10.50;99.90
21559;DHT22;10940;48.890;8.240;2024-03-02T10:04:50;10.60;99.90
21559;DHT22;10940;48.890;8.240;2024-03-02T10:07:17;10.70;99.90
21559;DHT22;10940;48.890;8.240;2024-03-02T10:09:47;10.80;99.90
21559;DHT22;10940;48.890;8.240;2024-03-02T10:12:16;10.90;99.90
21559;DHT22;10940;48.890;8.240;2024-03-02T10:14:42;11.00;99.90
21559;DHT22;10940;48.890;8.240;2024-03-02T10:17:10;11.10;99.90
21559;DHT22;10940;48.890;8.240;2024-03-02T10:19:37;11.20;99.90
21559;DHT22;10940;48.890;8.240;2024-03-02T10:22:05;11.20;99.90
21559;DHT22;10940;48.890;8.240;2024-03-02T10:27:18;11.30;99.90
21559;DHT22;10940;48.890;8.240;2024-03-02T10:29:48;11.40;99.90
21559;DHT22;10940;48.890;8.240;2024-03-02T10:32:14;11.50;99.90
21559;DHT22;10940;48.890;8.240;2024-03-02T10:34:41;11.60;99.90
21559;DHT22;10940;48.890;8.240;2024-03-02T10:37:07;11.70;99.90
21559;DHT22;10940;48.890;8.240;2024-03-02T10:39:34;11.90;99.90
21559;DHT22;10940;48.890;8.240;2024-03-02T10:42:02;12.00;99.90
21559;DHT22;10940;48.890;8.240;2024-03-02T10:44:30;12.10;99.90
21559;DHT22;10940;48.890;8.240;2024-03-02T10:46:56;12.30;99.90
21559;DHT22;10940;48.890;8.240;2024-03-02T10:49:23;12.30;99.90
21559;DHT22;10940;48.890;8.240;2024-03-02T10:51:49;12.40;99.90
21559;DHT22;10940;48.890;8.240;2024-03-02T10:54:15;12.40;99.90
21559;DHT22;10940;48.890;8.240;2024-03-02T10:56:42;12.50;99.90
21559;DHT22;10940;48.890;8.240;2024-03-02T10:59:32;12.60;99.90
21559;DHT22;10940;48.890;8.240;2024-03-02T11:02:00;12.60;99.90
21559;DHT22;10940;48.890;8.240;2024-03-02T11:04:28;12.70;99.90
21559;DHT22;10940;48.890;8.240;2024-03-02T11:07:02;12.80;99.90
21559;DHT22;10940;48.890;8.240;2024-03-02T11:09:28;12.90;99.90
21559;DHT22;10940;48.890;8.240;2024-03-02T11:12:09;13.10;99.90
21559;DHT22;10940;48.890;8.240;2024-03-02T11:14:40;13.20;99.90
21559;DHT22;10940;48.890;8.240;2024-03-02T11:17:08;13.20;99.90
21559;DHT22;10940;48.890;8.240;2024-03-02T11:19:34;13.30;99.90
21559;DHT22;10940;48.890;8.240;2024-03-02T11:22:02;13.30;99.90
21559;DHT22;10940;48.890;8.240;2024-03-02T11:24:29;13.50;99.90
21559;DHT22;10940;48.890;8.240;2024-03-02T11:26:59;13.50;99.90
21559;DHT22;10940;48.890;8.240;2024-03-02T11:32:14;13.60;99.90
21559;DHT22;10940;48.890;8.240;2024-03-02T11:34:46;13.60;99.90
21559;DHT22;10940;48.890;8.240;2024-03-02T11:37:13;13.70;99.90
21559;DHT22;10940;48.890;8.240;2024-03-02T11:39:44;13.70;99.90
21559;DHT22;10940;48.890;8.240;2024-03-02T11:42:11;13.90;99.90
21559;DHT22;10940;48.890;8.240;2024-03-02T11:44:40;14.00;99.90
21559;DHT22;10940;48.890;8.240;2024-03-02T11:47:07;14.20;99.90
21559;DHT22;10940;48.890;8.240;2024-03-02T11:49:41;14.20;99.90
21559;DHT22;10940;48.890;8.240;2024-03-02T11:52:09;14.20;99.90
21559;DHT22;10940;48.890;8.240;2024-03-02T11:54:37;14.30;99.90
21559;DHT22;10940;48.890;8.240;2024-03-02T11:57:07;14.40;99.90
21559;DHT22;10940;48.890;8.240;2024-03-02T11:59:33;14.40;99.90
21559;DHT22;10940;48.890;8.240;2024-03-02T12:01:59;14.50;99.90
21559;DHT22;10940;48.890;8.240;2024-03-02T12:04:26;14.50;99.90
21559;DHT22;10940;48.890;8.240;2024-03-02T12:06:56;14.50;99.90
21559;DHT22;10940;48.890;8.240;2024-03-02T12:09:25;14.50;99.90
21559;DHT22;10940;48.890;8.240;2024-03-02T12:12:04;14.60;99.90
21559;DHT22;10940;48.890;8.240;2024-03-02T12:14:35;14.70;99.90
21559;DHT22;10940;48.890;8.240;2024-03-02T12:17:01;14.70;99.90
21559;DHT22;10940;48.890;8.240;2024-03-02T12:19:28;14.70;99.90
21559;DHT22;10940;48.890;8.240;2024-03-02T12:21:56;14.70;99.90
21559;DHT22;10940;48.890;8.240;2024-03-02T12:24:22;14.90;99.90
21559;DHT22;10940;48.890;8.240;2024-03-02T12:26:50;14.90;99.90
21559;DHT22;10940;48.890;8.240;2024-03-02T12:29:16;15.00;99.90
21559;DHT22;10940;48.890;8.240;2024-03-02T12:31:42;15.10;99.90
21559;DHT22;10940;48.890;8.240;2024-03-02T12:34:12;15.20;99.90
21559;DHT22;10940;48.890;8.240;2024-03-02T12:36:39;15.30;99.90
21559;DHT22;10940;48.890;8.240;2024-03-02T12:39:04;15.40;99.90
21559;DHT22;10940;48.890;8.240;2024-03-02T12:41:30;15.40;99.90
21559;DHT22;10940;48.890;8.240;2024-03-02T12:43:56;15.50;99.90
21559;DHT22;10940;48.890;8.240;2024-03-02T12:46:22;15.70;99.90
21559;DHT22;10940;48.890;8.240;2024-03-02T12:48:47;15.90;99.90
21559;DHT22;10940;48.890;8.240;2024-03-02T12:51:13;15.90;99.90
21559;DHT22;10940;48.890;8.240;2024-03-02T12:53:40;15.80;99.90
21559;DHT22;10940;48.890;8.240;2024-03-02T12:56:05;15.70;99.90
21559;DHT22;10940;48.890;8.240;2024-03-02T12:58:42;15.60;99.90
21559;DHT22;10940;48.890;8.240;2024-03-02T13:01:08;15.60;99.90
21559;DHT22;10940;48.890;8.240;2024-03-02T13:03:39;15.70;99.90
21559;DHT22;10940;48.890;8.240;2024-03-02T13:06:06;15.60;99.90
21559;DHT22;10940;48.890;8.240;2024-03-02T13:08:35;15.60;99.90
21559;DHT22;10940;48.890;8.240;2024-03-02T13:11:02;15.70;99.90
21559;DHT22;10940;48.890;8.240;2024-03-02T13:13:30;15.60;99.90
21559;DHT22;10940;48.890;8.240;2024-03-02T13:15:56;15.50;99.90
21559;DHT22;10940;48.890;8.240;2024-03-02T13:18:22;15.40;99.90
21559;DHT22;10940;48.890;8.240;2024-03-02T13:20:48;15.30;99.90
21559;DHT22;10940;48.890;8.240;2024-03-02T13:23:13;15.40;99.90
21559;DHT22;10940;48.890;8.240;2024-03-02T13:25:39;15.40;99.90
21559;DHT22;10940;48.890;8.240;2024-03-02T13:28:05;15.40;99.90
21559;DHT22;10940;48.890;8.240;2024-03-02T13:30:32;15.40;99.90
21559;DHT22;10940;48.890;8.240;2024-03-02T13:32:58;15.50;99.90
21559;DHT22;10940;48.890;8.240;2024-03-02T13:35:23;15.60;99.90
21559;DHT22;10940;48.890;8.240;2024-03-02T13:37:49;15.70;99.90
21559;DHT22;10940;48.890;8.240;2024-03-02T13:40:15;15.80;99.90
21559;DHT22;10940;48.890;8.240;2024-03-02T13:42:45;15.80;99.90
21559;DHT22;10940;48.890;8.240;2024-03-02T13:45:12;15.90;99.90
21559;DHT22;10940;48.890;8.240;2024-03-02T13:47:38;16.00;99.90
21559;DHT22;10940;48.890;8.240;2024-03-02T13:50:03;15.90;99.90
21559;DHT22;10940;48.890;8.240;2024-03-02T13:52:30;16.00;99.90
21559;DHT22;10940;48.890;8.240;2024-03-02T13:54:56;16.10;99.90
21559;DHT22;10940;48.890;8.240;2024-03-02T13:57:22;16.00;99.90
21559;DHT22;10940;48.890;8.240;2024-03-02T13:59:48;16.00;99.90
21559;DHT22;10940;48.890;8.240;2024-03-02T14:02:13;15.90;99.90
21559;DHT22;10940;48.890;8.240;2024-03-02T14:04:40;15.80;99.90
21559;DHT22;10940;48.890;8.240;2024-03-02T14:07:06;15.80;99.90
21559;DHT22;10940;48.890;8.240;2024-03-02T14:09:36;15.80;99.90
21559;DHT22;10940;48.890;8.240;2024-03-02T14:12:02;15.80;99.90
21559;DHT22;10940;48.890;8.240;2024-03-02T14:14:28;15.70;99.90
21559;DHT22;10940;48.890;8.240;2024-03-02T14:16:57;15.60;99.90
21559;DHT22;10940;48.890;8.240;2024-03-02T14:19:29;15.60;99.90
21559;DHT22;10940;48.890;8.240;2024-03-02T14:21:54;15.50;99.90
21559;DHT22;10940;48.890;8.240;2024-03-02T14:24:20;15.50;99.90
21559;DHT22;10940;48.890;8.240;2024-03-02T14:26:49;15.40;99.90
21559;DHT22;10940;48.890;8.240;2024-03-02T14:29:14;15.50;99.90
21559;DHT22;10940;48.890;8.240;2024-03-02T14:31:40;15.50;99.90
21559;DHT22;10940;48.890;8.240;2024-03-02T14:34:06;15.50;99.90
21559;DHT22;10940;48.890;8.240;2024-03-02T14:36:32;15.60;99.90
21559;DHT22;10940;48.890;8.240;2024-03-02T14:38:57;15.60;99.90
21559;DHT22;10940;48.890;8.240;2024-03-02T14:41:23;15.60;99.90
21559;DHT22;10940;48.890;8.240;2024-03-02T14:43:50;15.60;99.90
21559;DHT22;10940;48.890;8.240;2024-03-02T14:46:15;15.50;99.90
21559;DHT22;10940;48.890;8.240;2024-03-02T14:48:44;15.40;99.90
21559;DHT22;10940;48.890;8.240;2024-03-02T14:51:10;15.30;99.90
21559;DHT22;10940;48.890;8.240;2024-03-02T14:53:36;15.20;99.90
21559;DHT22;10940;48.890;8.240;2024-03-02T14:56:03;15.20;99.90
21559;DHT22;10940;48.890;8.240;2024-03-02T14:58:29;15.00;99.90
21559;DHT22;10940;48.890;8.240;2024-03-02T15:00:55;15.00;99.90
21559;DHT22;10940;48.890;8.240;2024-03-02T15:03:20;15.10;99.90
21559;DHT22;10940;48.890;8.240;2024-03-02T15:05:46;15.00;99.90
21559;DHT22;10940;48.890;8.240;2024-03-02T15:08:13;15.10;99.90
21559;DHT22;10940;48.890;8.240;2024-03-02T15:10:38;15.00;99.90
21559;DHT22;10940;48.890;8.240;2024-03-02T15:13:04;15.00;99.90
21559;DHT22;10940;48.890;8.240;2024-03-02T15:15:30;15.00;99.90
21559;DHT22;10940;48.890;8.240;2024-03-02T15:17:55;15.00;99.90
21559;DHT22;10940;48.890;8.240;2024-03-02T15:20:21;14.90;99.90
21559;DHT22;10940;48.890;8.240;2024-03-02T15:22:47;14.80;99.90
21559;DHT22;10940;48.890;8.240;2024-03-02T15:25:12;14.80;99.90
21559;DHT22;10940;48.890;8.240;2024-03-02T15:27:38;14.80;99.90
21559;DHT22;10940;48.890;8.240;2024-03-02T15:30:05;14.70;99.90
21559;DHT22;10940;48.890;8.240;2024-03-02T15:32:32;14.70;99.90
21559;DHT22;10940;48.890;8.240;2024-03-02T15:34:59;14.70;99.90
21559;DHT22;10940;48.890;8.240;2024-03-02T15:37:25;14.70;99.90
21559;DHT22;10940;48.890;8.240;2024-03-02T15:39:50;14.60;99.90
21559;DHT22;10940;48.890;8.240;2024-03-02T15:42:16;14.50;99.90
21559;DHT22;10940;48.890;8.240;2024-03-02T15:44:43;14.50;99.90
21559;DHT22;10940;48.890;8.240;2024-03-02T15:47:09;14.50;99.90